Startpagina
METAR-TAF:

METAR-TAF

Vliegvelden :

Port of Spain, Trinidad, Trinidad en Tobago

breedte: 10-37N, lengte: 061-21W, hoogte: 12 m

Actueel weer

Dit bericht is 43 minuten geleden gemaakt, om 08:00 UTC
Wind 4 kt uit het oostzuidoosten
Temperatuur 25°C
Vochtigheid 94%
Druk 1011 hPa
Zicht 10 km of meer
Weinig wolken op 1400 ft

METAR: TTPP 190800Z 11004KT 9999 FEW014 25/24 Q1011 NOSIG

Tijdstip: 04:43 (08:43 UTC)

Verwachting

Dit bericht is 10 uur en het 43 minuten geleden gemaakt, om 22:00 UTC
Verwachting geldig van 19 om 00 UTC tot 19 om 24 UTC
Wind 5 kt uit het oostzuidoosten
Zicht 10 km of meer
Weinig wolken op 1800 ft
Kans 40% :
Tijdelijke
van 19 om 09 UTC tot 19 om 15 UTC
Zicht: 7000 m
Weinig wolken op 1200 ft, Cumulonimbus.
Gebroken wolken op 1500 ft
regenbuien
Wijzigt naar
van 19 om 12 UTC tot 19 om 14 UTC
Wind 12 kt uit het oostzuidoosten
Verspreide wolken op 1800 ft

TAF: TTPP 182200Z 1900/1924 12005KT 9999 FEW018 PROB40 TEMPO 1909/1915 7000 SHRA FEW012CB BKN015 BECMG 1912/1914 11012KT SCT018

Waarnemingen en weersverwachtingen van meer dan 4000 vliegvelden (METAR en TAF).

De beschikbare stations zijn de gele en rode punten op de kaart.

Ga met uw muis naar het station om de naam te zien.

Klik dan om waarnemingen en weersverwachtingen te zien.

kaart wijzigen: klik op de groene knoppen met een zwart kruis om in te zoomen, op de groene knop met een streepje om uit te zoomen of op de groene pijlen voor aangrenzende kaarten.


METAR-TAF: